createdAt,value
2017-08-24T00:02:23.751Z,11.94
2017-08-24T00:04:52.226Z,11.88
2017-08-24T00:07:20.711Z,11.84
2017-08-24T00:09:49.189Z,11.77
2017-08-24T00:12:17.674Z,11.71
2017-08-24T00:14:46.248Z,11.57
2017-08-24T00:17:14.682Z,11.55
2017-08-24T00:19:43.108Z,11.42
2017-08-24T00:22:11.548Z,11.49
2017-08-24T00:24:40.084Z,11.48
2017-08-24T00:27:08.566Z,11.56
2017-08-24T00:29:37.040Z,11.46
2017-08-24T00:32:05.530Z,11.53
2017-08-24T00:34:34.010Z,11.41
2017-08-24T00:37:02.494Z,11.45
2017-08-24T00:39:30.933Z,11.40
2017-08-24T00:41:59.451Z,11.27
2017-08-24T00:44:27.938Z,11.24
2017-08-24T00:46:57.232Z,11.25
2017-08-24T00:49:25.655Z,11.22
2017-08-24T00:51:54.113Z,11.26
2017-08-24T00:54:22.586Z,11.21
2017-08-24T00:56:51.067Z,11.30
2017-08-24T00:59:19.505Z,11.27
2017-08-24T01:01:48.031Z,11.16
2017-08-24T01:04:16.513Z,11.20
2017-08-24T01:06:44.988Z,11.21
2017-08-24T01:09:13.429Z,11.13
2017-08-24T01:11:41.959Z,11.05
2017-08-24T01:14:10.411Z,11.09
2017-08-24T01:16:38.922Z,11.10
2017-08-24T01:19:07.361Z,11.14
2017-08-24T01:21:35.778Z,11.07
2017-08-24T01:24:04.224Z,10.91
2017-08-24T01:26:32.643Z,10.87
2017-08-24T01:29:01.085Z,10.91
2017-08-24T01:31:29.595Z,10.88
2017-08-24T01:33:58.040Z,10.72
2017-08-24T01:36:26.555Z,10.61
2017-08-24T01:38:55.055Z,10.62
2017-08-24T01:41:23.527Z,10.63
2017-08-24T01:43:52.016Z,10.62
2017-08-24T01:46:24.397Z,10.68
2017-08-24T01:48:52.856Z,10.62
2017-08-24T01:51:21.294Z,10.57
2017-08-24T01:53:49.739Z,10.59
2017-08-24T01:56:18.155Z,10.51
2017-08-24T01:58:46.601Z,10.43
2017-08-24T02:01:15.072Z,10.47
2017-08-24T02:03:43.542Z,10.52
2017-08-24T02:06:11.976Z,10.48
2017-08-24T02:08:40.433Z,10.49
2017-08-24T02:11:08.898Z,10.49
2017-08-24T02:13:37.370Z,10.40
2017-08-24T02:16:05.865Z,10.35
2017-08-24T02:18:34.357Z,10.37
2017-08-24T02:21:02.829Z,10.41
2017-08-24T02:23:31.314Z,10.46
2017-08-24T02:25:59.782Z,10.46
2017-08-24T02:28:28.263Z,10.44
2017-08-24T02:30:56.725Z,10.42
2017-08-24T02:33:25.231Z,10.40
2017-08-24T02:35:53.725Z,10.42
2017-08-24T02:38:22.196Z,10.34
2017-08-24T02:40:50.635Z,10.26
2017-08-24T02:43:19.169Z,10.27
2017-08-24T02:45:47.634Z,10.31
2017-08-24T02:48:16.128Z,10.38
2017-08-24T02:50:44.599Z,10.31
2017-08-24T02:53:13.089Z,10.33
2017-08-24T02:55:41.531Z,10.24
2017-08-24T02:58:09.955Z,10.23
2017-08-24T03:00:38.448Z,10.12
2017-08-24T03:03:06.916Z,10.11
2017-08-24T03:05:35.369Z,10.08
2017-08-24T03:08:04.605Z,10.01
2017-08-24T03:10:33.073Z,9.99
2017-08-24T03:13:01.570Z,9.99
2017-08-24T03:15:30.027Z,9.92
2017-08-24T03:17:58.522Z,9.88
2017-08-24T03:20:26.964Z,9.95
2017-08-24T03:22:55.488Z,10.00
2017-08-24T03:25:23.968Z,10.03
2017-08-24T03:27:52.462Z,10.00
2017-08-24T03:30:20.926Z,10.02
2017-08-24T03:32:49.416Z,9.98
2017-08-24T03:35:17.877Z,10.01
2017-08-24T03:37:46.380Z,9.98
2017-08-24T03:40:14.879Z,10.00
2017-08-24T03:42:43.337Z,9.94
2017-08-24T03:45:11.768Z,9.97
2017-08-24T03:47:40.224Z,9.89
2017-08-24T03:50:08.679Z,9.91
2017-08-24T03:52:37.119Z,9.83
2017-08-24T03:55:05.553Z,9.77
2017-08-24T03:57:34.032Z,9.72
2017-08-24T04:00:02.522Z,9.71
2017-08-24T04:02:30.996Z,9.80
2017-08-24T04:04:59.429Z,9.83
2017-08-24T04:07:27.884Z,9.80
2017-08-24T04:09:56.354Z,9.80
2017-08-24T04:12:24.795Z,9.78
2017-08-24T04:14:53.291Z,9.74
2017-08-24T04:17:21.785Z,9.75
2017-08-24T04:19:50.215Z,9.73
2017-08-24T04:22:18.647Z,9.65
2017-08-24T04:24:47.138Z,9.78
2017-08-24T04:27:15.583Z,9.83
2017-08-24T04:29:44.104Z,9.91
2017-08-24T04:32:12.539Z,9.90
2017-08-24T04:34:40.960Z,9.90
2017-08-24T04:37:09.432Z,9.89
2017-08-24T04:39:37.915Z,9.96
2017-08-24T04:42:06.395Z,10.06
2017-08-24T04:44:34.833Z,10.17
2017-08-24T04:47:03.304Z,10.17
2017-08-24T04:49:31.731Z,10.06
2017-08-24T04:52:00.224Z,10.27
2017-08-24T04:54:29.537Z,10.27
2017-08-24T04:56:57.963Z,10.34
2017-08-24T04:59:26.422Z,10.41
2017-08-24T05:01:54.877Z,10.48
2017-08-24T05:04:23.356Z,10.53
2017-08-24T05:06:51.780Z,10.68
2017-08-24T05:09:20.306Z,10.69
2017-08-24T05:11:48.809Z,10.74
2017-08-24T05:14:17.296Z,10.76
2017-08-24T05:16:45.764Z,10.93
2017-08-24T05:19:14.255Z,11.05
2017-08-24T05:21:42.738Z,11.18
2017-08-24T05:24:11.183Z,11.31
2017-08-24T05:26:39.700Z,11.41
2017-08-24T05:29:08.182Z,11.50
2017-08-24T05:31:36.599Z,11.57
2017-08-24T05:34:05.044Z,11.68
2017-08-24T05:39:08.010Z,11.97
2017-08-24T05:41:36.530Z,12.04
2017-08-24T05:44:04.997Z,12.11
2017-08-24T05:46:33.414Z,12.18
2017-08-24T05:49:01.972Z,12.39
2017-08-24T05:51:30.409Z,12.61
2017-08-24T05:53:58.936Z,12.77
2017-08-24T05:56:27.430Z,12.80
2017-08-24T05:58:55.896Z,13.03
2017-08-24T06:01:24.338Z,13.10
2017-08-24T06:03:52.874Z,13.29
2017-08-24T06:06:21.333Z,13.33
2017-08-24T06:08:49.834Z,13.29
2017-08-24T06:11:18.317Z,13.31
2017-08-24T06:13:46.803Z,13.50
2017-08-24T06:16:15.256Z,13.63
2017-08-24T06:18:43.743Z,13.70
2017-08-24T06:21:12.205Z,13.84
2017-08-24T06:23:41.399Z,13.98
2017-08-24T06:26:09.916Z,14.04
2017-08-24T06:28:38.395Z,14.09
2017-08-24T06:31:06.843Z,14.29
2017-08-24T06:33:35.359Z,14.56
2017-08-24T06:36:03.948Z,14.76
2017-08-24T06:38:32.428Z,14.97
2017-08-24T06:41:00.902Z,15.27
2017-08-24T06:43:29.342Z,15.46
2017-08-24T06:45:57.886Z,15.70
2017-08-24T06:48:26.326Z,15.82
2017-08-24T06:50:54.817Z,15.99
2017-08-24T06:53:23.263Z,16.12
2017-08-24T06:55:51.812Z,16.35
2017-08-24T06:58:20.269Z,16.47
2017-08-24T07:00:48.764Z,16.62
2017-08-24T07:03:17.253Z,16.85
2017-08-24T07:05:45.725Z,16.94
2017-08-24T07:08:14.244Z,17.11
2017-08-24T07:10:42.797Z,17.36
2017-08-24T07:13:11.253Z,17.57
2017-08-24T07:15:39.760Z,17.64
2017-08-24T07:18:08.211Z,17.84
2017-08-24T07:20:36.734Z,17.85
2017-08-24T07:23:05.198Z,17.88
2017-08-24T07:25:33.698Z,18.23
2017-08-24T07:28:02.182Z,18.40
2017-08-24T07:30:30.613Z,18.52
2017-08-24T07:32:59.140Z,18.46
2017-08-24T07:35:27.611Z,18.55
2017-08-24T07:37:56.113Z,18.54
2017-08-24T07:40:24.579Z,18.66
2017-08-24T07:42:53.137Z,18.76
2017-08-24T07:45:21.660Z,18.91
2017-08-24T07:47:50.127Z,18.93
2017-08-24T07:50:18.622Z,18.98
2017-08-24T07:52:47.066Z,19.11
2017-08-24T07:55:15.575Z,19.19
2017-08-24T07:57:44.051Z,19.22
2017-08-24T08:00:12.541Z,19.32
2017-08-24T08:02:40.958Z,19.64
2017-08-24T08:05:09.409Z,19.77
2017-08-24T08:07:37.884Z,19.82
2017-08-24T08:10:06.336Z,19.94
2017-08-24T08:12:34.857Z,19.74
2017-08-24T08:15:03.343Z,19.98
2017-08-24T08:17:31.812Z,19.98
2017-08-24T08:20:00.292Z,20.27
2017-08-24T08:22:28.734Z,20.38
2017-08-24T08:24:57.180Z,20.60
2017-08-24T08:27:25.608Z,20.62
2017-08-24T08:29:54.124Z,20.65
2017-08-24T08:32:22.575Z,20.41
2017-08-24T08:34:51.093Z,20.35
2017-08-24T08:37:19.550Z,20.25
2017-08-24T08:39:47.986Z,20.26
2017-08-24T08:42:16.419Z,20.42
2017-08-24T08:44:44.983Z,20.46
2017-08-24T08:47:13.412Z,20.49
2017-08-24T08:49:41.853Z,20.65
2017-08-24T08:52:10.354Z,20.62
2017-08-24T08:54:38.847Z,20.60
2017-08-24T08:57:07.315Z,20.74
2017-08-24T08:59:35.826Z,20.77
2017-08-24T09:02:04.375Z,20.90
2017-08-24T09:04:32.864Z,21.02
2017-08-24T09:07:01.348Z,20.85
2017-08-24T09:09:29.823Z,20.97
2017-08-24T09:11:58.312Z,21.02
2017-08-24T09:14:26.737Z,21.15
2017-08-24T09:16:55.267Z,21.52
2017-08-24T09:19:23.760Z,21.61
2017-08-24T09:21:52.240Z,21.56
2017-08-24T09:24:20.719Z,21.77
2017-08-24T09:26:49.214Z,22.03
2017-08-24T09:29:17.677Z,22.16
2017-08-24T09:31:46.098Z,22.28
2017-08-24T09:34:14.552Z,22.52
2017-08-24T09:36:43.335Z,22.72
2017-08-24T09:39:11.823Z,22.77
2017-08-24T09:41:40.261Z,22.58
2017-08-24T09:44:08.722Z,22.71
2017-08-24T09:46:37.160Z,22.56
2017-08-24T09:49:05.654Z,22.91
2017-08-24T09:51:34.128Z,23.02
2017-08-24T09:54:02.602Z,23.10
2017-08-24T09:56:31.036Z,23.29
2017-08-24T09:58:59.582Z,23.28
2017-08-24T10:01:28.056Z,23.00
2017-08-24T10:03:56.540Z,23.29
2017-08-24T10:06:25.024Z,23.37
2017-08-24T10:08:53.461Z,23.33
2017-08-24T10:11:21.913Z,23.30
2017-08-24T10:13:50.327Z,23.34
2017-08-24T10:16:18.770Z,23.37
2017-08-24T10:18:49.742Z,23.61
2017-08-24T10:21:18.268Z,23.22
2017-08-24T10:23:46.692Z,23.21
2017-08-24T10:26:15.144Z,23.55
2017-08-24T10:28:43.674Z,23.25
2017-08-24T10:31:12.213Z,23.46
2017-08-24T10:33:40.643Z,23.56
2017-08-24T10:36:09.197Z,23.40
2017-08-24T10:38:37.649Z,23.70
2017-08-24T10:41:06.240Z,23.76
2017-08-24T10:43:34.719Z,23.59
2017-08-24T10:46:03.199Z,23.55
2017-08-24T10:48:31.632Z,23.72
2017-08-24T10:51:00.162Z,23.97
2017-08-24T10:53:28.636Z,23.92
2017-08-24T10:55:57.116Z,24.20
2017-08-24T10:58:25.606Z,23.82
2017-08-24T11:00:54.059Z,24.12
2017-08-24T11:03:22.556Z,24.51
2017-08-24T11:05:51.004Z,24.64
2017-08-24T11:08:19.450Z,24.46
2017-08-24T11:10:47.938Z,24.31
2017-08-24T11:13:16.366Z,24.60
2017-08-24T11:15:44.873Z,24.85
2017-08-24T11:18:13.424Z,24.61
2017-08-24T11:20:41.945Z,24.87
2017-08-24T11:23:10.430Z,24.51
2017-08-24T11:25:38.910Z,24.84
2017-08-24T11:28:07.384Z,25.09
2017-08-24T11:30:35.875Z,24.84
2017-08-24T11:33:04.397Z,24.66
2017-08-24T11:35:32.839Z,24.28
2017-08-24T11:38:01.322Z,24.13
2017-08-24T11:40:29.787Z,24.01
2017-08-24T11:42:58.267Z,23.88
2017-08-24T11:45:26.729Z,23.91
2017-08-24T11:47:55.240Z,23.83
2017-08-24T11:50:23.731Z,23.68
2017-08-24T11:52:52.165Z,23.84
2017-08-24T11:55:20.625Z,23.72
2017-08-24T11:57:49.064Z,23.79
2017-08-24T12:00:17.563Z,23.92
2017-08-24T12:02:46.023Z,23.98
2017-08-24T12:05:14.512Z,23.94
2017-08-24T12:07:42.991Z,23.79
2017-08-24T12:10:11.440Z,23.98
2017-08-24T12:12:39.877Z,24.22
2017-08-24T12:15:08.333Z,24.27
2017-08-24T12:17:36.759Z,23.88
2017-08-24T12:20:05.212Z,23.73
2017-08-24T12:22:33.639Z,23.58
2017-08-24T12:25:02.160Z,23.52
2017-08-24T12:27:30.655Z,23.65
2017-08-24T12:29:59.135Z,23.82
2017-08-24T12:32:27.599Z,23.84
2017-08-24T12:34:56.099Z,23.95
2017-08-24T12:37:24.556Z,23.57
2017-08-24T12:39:52.993Z,23.59
2017-08-24T12:42:21.526Z,23.85
2017-08-24T12:44:50.022Z,23.95
2017-08-24T12:47:18.487Z,24.25
2017-08-24T12:49:46.980Z,24.20
2017-08-24T12:52:15.465Z,24.13
2017-08-24T12:54:43.897Z,23.88
2017-08-24T12:57:12.358Z,23.87
2017-08-24T12:59:40.818Z,23.63
2017-08-24T13:02:09.305Z,23.35
2017-08-24T13:04:37.745Z,23.59
2017-08-24T13:07:06.252Z,23.56
2017-08-24T13:09:34.746Z,23.75
2017-08-24T13:12:03.216Z,23.90
2017-08-24T13:14:31.701Z,23.89
2017-08-24T13:17:00.174Z,23.95
2017-08-24T13:19:28.669Z,24.30
2017-08-24T13:21:57.350Z,24.71
2017-08-24T13:24:25.827Z,24.57
2017-08-24T13:26:54.637Z,24.77
2017-08-24T13:29:23.104Z,24.71
2017-08-24T13:31:51.578Z,24.48
2017-08-24T13:34:20.018Z,24.62
2017-08-24T13:36:48.449Z,24.74
2017-08-24T13:39:16.928Z,24.64
2017-08-24T13:41:45.347Z,24.65
2017-08-24T13:44:13.932Z,24.97
2017-08-24T13:46:42.360Z,24.70
2017-08-24T13:49:11.274Z,24.63
2017-08-24T13:51:39.752Z,24.58
2017-08-24T13:54:08.196Z,24.38
2017-08-24T13:56:36.703Z,24.17
2017-08-24T13:59:05.148Z,24.27
2017-08-24T14:01:33.682Z,24.17
2017-08-24T14:04:02.166Z,24.29
2017-08-24T14:06:30.630Z,24.24
2017-08-24T14:08:59.113Z,24.19
2017-08-24T14:11:27.536Z,24.31
2017-08-24T14:13:55.973Z,24.03
2017-08-24T14:16:24.474Z,24.10
2017-08-24T14:18:53.047Z,24.21
2017-08-24T14:21:21.528Z,24.18
2017-08-24T14:23:50.001Z,24.37
2017-08-24T14:26:18.506Z,24.38
2017-08-24T14:28:46.990Z,24.33
2017-08-24T14:31:15.434Z,24.45
2017-08-24T14:33:43.877Z,24.53
2017-08-24T14:36:12.336Z,24.55
2017-08-24T14:38:40.818Z,24.51
2017-08-24T14:41:09.302Z,24.42
2017-08-24T14:43:37.758Z,24.44
2017-08-24T14:46:06.195Z,24.31
2017-08-24T14:48:34.629Z,23.94
2017-08-24T14:51:03.122Z,23.56
2017-08-24T14:53:31.547Z,23.54
2017-08-24T14:56:00.076Z,23.34
2017-08-24T14:58:28.548Z,23.16
2017-08-24T15:00:57.047Z,22.99
2017-08-24T15:03:25.513Z,22.77
2017-08-24T15:05:54.019Z,22.46
2017-08-24T15:08:22.541Z,22.39
2017-08-24T15:10:51.079Z,22.41
2017-08-24T15:13:19.756Z,22.32
2017-08-24T15:15:48.226Z,22.43
2017-08-24T15:18:16.733Z,22.38
2017-08-24T15:20:45.214Z,22.22
2017-08-24T15:23:13.693Z,22.13
2017-08-24T15:25:42.124Z,22.04
2017-08-24T15:28:10.666Z,22.00
2017-08-24T15:30:39.127Z,21.95
2017-08-24T15:33:07.578Z,21.75
2017-08-24T15:35:36.018Z,21.60
2017-08-24T15:38:04.588Z,21.51
2017-08-24T15:40:33.018Z,21.62
2017-08-24T15:43:01.548Z,21.48
2017-08-24T15:45:30.030Z,21.37
2017-08-24T15:47:58.510Z,21.42
2017-08-24T15:50:26.988Z,21.44
2017-08-24T15:52:55.482Z,21.55
2017-08-24T15:55:23.924Z,21.72
2017-08-24T15:57:52.427Z,21.99
2017-08-24T16:00:20.927Z,22.22
2017-08-24T16:02:49.410Z,22.48
2017-08-24T16:05:17.890Z,22.80
2017-08-24T16:07:46.461Z,22.89
2017-08-24T16:10:14.944Z,22.89
2017-08-24T16:12:43.439Z,22.99
2017-08-24T16:15:11.921Z,22.85
2017-08-24T16:17:40.402Z,22.91
2017-08-24T16:20:08.838Z,22.72
2017-08-24T16:22:37.361Z,22.75
2017-08-24T16:25:05.845Z,22.73
2017-08-24T16:27:34.289Z,22.90
2017-08-24T16:30:02.804Z,22.74
2017-08-24T16:32:32.011Z,22.72
2017-08-24T16:35:00.490Z,22.71
2017-08-24T16:37:28.937Z,22.68
2017-08-24T16:39:57.458Z,22.54
2017-08-24T16:42:25.896Z,22.52
2017-08-24T16:44:54.422Z,22.50
2017-08-24T16:47:22.851Z,22.40
2017-08-24T16:49:51.378Z,22.27
2017-08-24T16:52:19.852Z,22.23
2017-08-24T16:54:48.349Z,22.24
2017-08-24T16:57:16.831Z,22.28
2017-08-24T16:59:45.292Z,22.28
2017-08-24T17:02:13.786Z,22.24
2017-08-24T17:04:42.280Z,22.07
2017-08-24T17:07:10.745Z,22.03
2017-08-24T17:09:39.232Z,21.90
2017-08-24T17:12:07.699Z,21.81
2017-08-24T17:14:36.233Z,21.77
2017-08-24T17:17:04.767Z,21.65
2017-08-24T17:19:33.201Z,21.68
2017-08-24T17:22:01.735Z,21.65
2017-08-24T17:24:30.220Z,21.52
2017-08-24T17:26:58.708Z,21.43
2017-08-24T17:29:27.152Z,21.34
2017-08-24T17:31:55.672Z,21.24
2017-08-24T17:34:24.152Z,21.20
2017-08-24T17:36:52.613Z,21.17
2017-08-24T17:39:21.112Z,21.13
2017-08-24T17:41:49.563Z,21.10
2017-08-24T17:44:18.076Z,21.06
2017-08-24T17:46:46.541Z,21.00
2017-08-24T17:49:15.050Z,20.97
2017-08-24T17:51:43.639Z,20.91
2017-08-24T17:54:12.071Z,20.86
2017-08-24T17:56:40.537Z,20.76
2017-08-24T17:59:09.068Z,20.71
2017-08-24T18:01:37.542Z,20.67
2017-08-24T18:04:06.031Z,20.55
2017-08-24T18:06:34.516Z,20.50
2017-08-24T18:09:02.982Z,20.46
2017-08-24T18:11:32.176Z,20.39
2017-08-24T18:14:00.667Z,20.30
2017-08-24T18:16:29.163Z,20.25
2017-08-24T18:18:57.615Z,20.11
2017-08-24T18:21:26.139Z,20.08
2017-08-24T18:23:54.604Z,20.07
2017-08-24T18:26:23.091Z,20.01
2017-08-24T18:28:51.549Z,19.95
2017-08-24T18:31:20.052Z,19.91
2017-08-24T18:33:48.505Z,19.91
2017-08-24T18:36:17.025Z,19.85
2017-08-24T18:38:45.496Z,19.80
2017-08-24T18:41:13.929Z,19.76
2017-08-24T18:43:42.385Z,19.63
2017-08-24T18:46:10.825Z,19.59
2017-08-24T18:48:39.254Z,19.53
2017-08-24T18:51:07.708Z,19.51
2017-08-24T18:53:36.165Z,19.49
2017-08-24T18:56:04.681Z,19.43
2017-08-24T18:58:33.147Z,19.37
2017-08-24T19:01:01.630Z,19.28
2017-08-24T19:03:30.127Z,19.25
2017-08-24T19:05:58.660Z,19.20
2017-08-24T19:08:27.106Z,19.17
2017-08-24T19:10:55.684Z,19.13
2017-08-24T19:13:24.111Z,19.07
2017-08-24T19:15:52.704Z,19.03
2017-08-24T19:18:21.148Z,18.99
2017-08-24T19:20:49.604Z,18.95
2017-08-24T19:23:18.076Z,18.89
2017-08-24T19:25:46.556Z,18.86
2017-08-24T19:28:15.048Z,18.80
2017-08-24T19:30:43.519Z,18.75
2017-08-24T19:33:11.994Z,18.66
2017-08-24T19:35:40.494Z,18.62
2017-08-24T19:38:08.920Z,18.59
2017-08-24T19:40:37.386Z,18.55
2017-08-24T19:43:05.939Z,18.48
2017-08-24T19:45:34.416Z,18.48
2017-08-24T19:48:02.887Z,18.40
2017-08-24T19:50:31.337Z,18.35
2017-08-24T19:52:59.793Z,18.25
2017-08-24T19:55:28.330Z,18.22
2017-08-24T19:57:57.636Z,18.17
2017-08-24T20:00:26.117Z,18.12
2017-08-24T20:02:54.585Z,18.13
2017-08-24T20:05:23.075Z,18.07
2017-08-24T20:07:51.542Z,18.02
2017-08-24T20:10:20.764Z,17.94
2017-08-24T20:12:49.247Z,17.86
2017-08-24T20:15:17.666Z,17.89
2017-08-24T20:17:46.134Z,17.78
2017-08-24T20:20:14.592Z,17.75
2017-08-24T20:22:43.085Z,17.71
2017-08-24T20:25:11.566Z,17.66
2017-08-24T20:27:40.032Z,17.60
2017-08-24T20:30:08.516Z,17.52
2017-08-24T20:32:37.014Z,17.49
2017-08-24T20:35:05.491Z,17.45
2017-08-24T20:37:33.940Z,17.46
2017-08-24T20:40:02.392Z,17.46
2017-08-24T20:42:30.923Z,17.37
2017-08-24T20:44:59.412Z,17.36
2017-08-24T20:47:27.906Z,17.32
2017-08-24T20:49:56.363Z,17.32
2017-08-24T20:52:24.856Z,17.29
2017-08-24T20:54:53.336Z,17.24
2017-08-24T20:57:21.922Z,17.23
2017-08-24T20:59:50.385Z,17.18
2017-08-24T21:02:19.598Z,17.13
2017-08-24T21:04:48.102Z,17.09
2017-08-24T21:07:16.568Z,17.07
2017-08-24T21:09:45.060Z,17.03
2017-08-24T21:12:14.332Z,17.01
2017-08-24T21:14:42.790Z,16.99
2017-08-24T21:17:11.311Z,16.97
2017-08-24T21:19:39.778Z,16.99
2017-08-24T21:22:08.694Z,17.02
2017-08-24T21:24:37.182Z,17.09
2017-08-24T21:27:05.655Z,17.11
2017-08-24T21:29:34.122Z,17.15
2017-08-24T21:32:02.538Z,17.17
2017-08-24T21:34:31.092Z,17.19
2017-08-24T21:36:59.520Z,17.19
2017-08-24T21:39:28.057Z,17.21
2017-08-24T21:41:56.493Z,17.24
2017-08-24T21:44:25.037Z,17.25
2017-08-24T21:46:53.504Z,17.24
2017-08-24T21:49:21.996Z,17.23
2017-08-24T21:51:50.443Z,17.19
2017-08-24T21:54:18.943Z,17.22
2017-08-24T21:56:47.436Z,17.26
2017-08-24T21:59:15.915Z,17.25
2017-08-24T22:01:44.395Z,17.21
2017-08-24T22:04:12.881Z,17.19
2017-08-24T22:06:41.308Z,17.12
2017-08-24T22:09:09.851Z,17.06
2017-08-24T22:11:38.334Z,17.02
2017-08-24T22:14:06.813Z,16.99
2017-08-24T22:16:35.288Z,16.92
2017-08-24T22:19:03.785Z,16.88
2017-08-24T22:21:32.257Z,16.85
2017-08-24T22:24:00.716Z,16.76
2017-08-24T22:26:29.152Z,16.72
2017-08-24T22:28:57.604Z,16.64
2017-08-24T22:31:26.067Z,16.64
2017-08-24T22:33:54.570Z,16.54
2017-08-24T22:36:23.050Z,16.50
2017-08-24T22:38:51.514Z,16.37
2017-08-24T22:41:19.940Z,16.36
2017-08-24T22:43:48.500Z,16.29
2017-08-24T22:46:16.944Z,16.23
2017-08-24T22:48:45.683Z,16.20
2017-08-24T22:51:14.207Z,16.10
2017-08-24T22:53:48.113Z,16.10
2017-08-24T22:59:27.054Z,16.01
2017-08-24T23:02:01.132Z,15.99
2017-08-24T23:04:29.605Z,16.02
2017-08-24T23:06:58.072Z,16.08
2017-08-24T23:09:26.559Z,16.10
2017-08-24T23:11:55.013Z,16.14
2017-08-24T23:14:23.528Z,16.17
2017-08-24T23:16:51.989Z,16.17
2017-08-24T23:19:20.474Z,16.15
2017-08-24T23:21:48.925Z,16.11
2017-08-24T23:24:17.452Z,16.10
2017-08-24T23:26:45.900Z,16.02
2017-08-24T23:29:14.423Z,16.00
2017-08-24T23:31:42.892Z,15.93
2017-08-24T23:34:11.371Z,15.92
2017-08-24T23:36:39.859Z,15.88
2017-08-24T23:39:08.296Z,15.87
2017-08-24T23:41:36.743Z,15.87
2017-08-24T23:44:05.191Z,15.87
2017-08-24T23:46:33.636Z,15.85
2017-08-24T23:49:02.159Z,15.84
2017-08-24T23:51:30.613Z,15.83
2017-08-24T23:53:59.143Z,15.83
2017-08-24T23:56:27.604Z,15.82
2017-08-24T23:58:56.024Z,15.82
